Time,TemperatureF,DewpointF,PressureIn,WindDirection,WindDirectionDegrees,WindSpeedMPH,WindSpeedGustMPH,Humidity,HourlyPrecipIn,Conditions,Clouds,dailyrainin,SoftwareType,DateUTC
2014-01-04 00:22:00,13.0,-99.9,-100.00,SSE,160,24.0,29.0,-999,-99.99,,,-99.99,,2014-01-04 05:22:00,
2014-01-04 00:33:00,13.0,-99.9,-100.00,SSE,160,24.0,29.0,-999,-99.99,,,-99.99,,2014-01-04 05:33:00,
2014-01-04 00:43:00,13.0,-99.9,-100.00,SSE,160,24.0,29.0,-999,-99.99,,,-99.99,,2014-01-04 05:43:00,
2014-01-04 02:23:00,13.0,-99.9,-100.00,SSE,160,29.0,32.0,-999,-99.99,,,-99.99,,2014-01-04 07:23:00,
2014-01-04 02:32:00,13.0,-99.9,-100.00,SSE,160,29.0,32.0,-999,-99.99,,,-99.99,,2014-01-04 07:32:00,
2014-01-04 02:42:00,13.0,-99.9,-100.00,SSE,160,29.0,32.0,-999,-99.99,,,-99.99,,2014-01-04 07:42:00,
2014-01-04 04:22:00,14.0,-99.9,-100.00,South,170,26.0,30.0,-999,-99.99,,,-99.99,,2014-01-04 09:22:00,
2014-01-04 04:33:00,14.0,-99.9,-100.00,South,170,26.0,30.0,-999,-99.99,,,-99.99,,2014-01-04 09:33:00,
2014-01-04 04:43:00,14.0,-99.9,-100.00,South,170,26.0,30.0,-999,-99.99,,,-99.99,,2014-01-04 09:43:00,
2014-01-04 06:22:00,16.0,-99.9,-100.00,South,170,24.0,26.0,-999,-99.99,,,-99.99,,2014-01-04 11:22:00,
2014-01-04 06:33:00,16.0,-99.9,-100.00,South,170,24.0,26.0,-999,-99.99,,,-99.99,,2014-01-04 11:33:00,
2014-01-04 06:43:00,16.0,-99.9,-100.00,South,170,24.0,26.0,-999,-99.99,,,-99.99,,2014-01-04 11:43:00,
2014-01-04 08:22:00,18.0,-99.9,-100.00,South,180,25.0,29.0,-999,-99.99,,,-99.99,,2014-01-04 13:22:00,
2014-01-04 08:32:00,18.0,-99.9,-100.00,South,180,25.0,29.0,-999,-99.99,,,-99.99,,2014-01-04 13:32:00,
2014-01-04 08:42:00,18.0,-99.9,-100.00,South,180,25.0,29.0,-999,-99.99,,,-99.99,,2014-01-04 13:42:00,
2014-01-04 10:22:00,20.0,-99.9,-100.00,South,170,20.0,24.0,-999,-99.99,,,-99.99,,2014-01-04 15:22:00,
2014-01-04 10:33:00,20.0,-99.9,-100.00,South,170,20.0,24.0,-999,-99.99,,,-99.99,,2014-01-04 15:33:00,
2014-01-04 10:43:00,20.0,-99.9,-100.00,South,170,20.0,24.0,-999,-99.99,,,-99.99,,2014-01-04 15:43:00,
2014-01-04 12:22:00,27.0,-99.9,-100.00,South,190,30.0,37.0,-999,-99.99,,,-99.99,,2014-01-04 17:22:00,
2014-01-04 12:33:00,27.0,-99.9,-100.00,South,190,30.0,37.0,-999,-99.99,,,-99.99,,2014-01-04 17:33:00,
2014-01-04 12:43:00,27.0,-99.9,-100.00,South,190,30.0,37.0,-999,-99.99,,,-99.99,,2014-01-04 17:43:00,
2014-01-04 14:22:00,29.0,-99.9,-100.00,South,190,29.0,33.0,-999,-99.99,,,-99.99,,2014-01-04 19:22:00,
2014-01-04 14:43:00,29.0,-99.9,-100.00,South,190,29.0,33.0,-999,-99.99,,,-99.99,,2014-01-04 19:43:00,
2014-01-04 16:22:00,30.0,-99.9,-100.00,South,190,23.0,26.0,-999,-99.99,,,-99.99,,2014-01-04 21:22:00,
2014-01-04 16:33:00,30.0,-99.9,-100.00,South,190,23.0,26.0,-999,-99.99,,,-99.99,,2014-01-04 21:33:00,
2014-01-04 16:44:00,30.0,-99.9,-100.00,South,190,23.0,26.0,-999,-99.99,,,-99.99,,2014-01-04 21:44:00,
2014-01-04 18:22:00,31.0,-99.9,-100.00,South,190,21.0,23.0,-999,-99.99,,,-99.99,,2014-01-04 23:22:00,
2014-01-04 18:33:00,31.0,-99.9,-100.00,South,190,21.0,23.0,-999,-99.99,,,-99.99,,2014-01-04 23:33:00,
2014-01-04 18:42:00,31.0,-99.9,-100.00,South,190,21.0,23.0,-999,-99.99,,,-99.99,,2014-01-04 23:42:00,
2014-01-04 20:22:00,31.0,-99.9,-100.00,South,180,10.0,13.0,-999,-99.99,,,-99.99,,2014-01-05 01:22:00,
2014-01-04 20:32:00,31.0,-99.9,-100.00,South,180,10.0,13.0,-999,-99.99,,,-99.99,,2014-01-05 01:32:00,
2014-01-04 20:42:00,31.0,-99.9,-100.00,South,180,10.0,13.0,-999,-99.99,,,-99.99,,2014-01-05 01:42:00,
2014-01-04 22:22:00,31.0,-99.9,-100.00,South,180,9.0,10.0,-999,-99.99,,,-99.99,,2014-01-05 03:22:00,
2014-01-04 22:34:00,31.0,-99.9,-100.00,South,180,9.0,10.0,-999,-99.99,,,-99.99,,2014-01-05 03:34:00,
2014-01-04 22:44:00,31.0,-99.9,-100.00,South,180,9.0,10.0,-999,-99.99,,,-99.99,,2014-01-05 03:44:00,